createdAt,value
2018-07-02T00:00:14.494Z,2.10
2018-07-02T00:02:43.750Z,2.40
2018-07-02T00:05:12.934Z,1.80
2018-07-02T00:07:42.154Z,2.50
2018-07-02T00:10:11.444Z,2.10
2018-07-02T00:12:40.652Z,2.37
2018-07-02T00:15:09.996Z,2.00
2018-07-02T00:17:39.265Z,2.53
2018-07-02T00:20:08.766Z,2.17
2018-07-02T00:22:37.970Z,2.27
2018-07-02T00:25:07.428Z,2.35
2018-07-02T00:27:38.333Z,2.10
2018-07-02T00:30:07.581Z,2.10
2018-07-02T00:32:36.798Z,2.00
2018-07-02T00:35:06.664Z,2.20
2018-07-02T00:37:35.896Z,2.10
2018-07-02T00:40:05.221Z,2.13
2018-07-02T00:42:34.438Z,1.97
2018-07-02T00:45:03.722Z,2.10
2018-07-02T00:47:32.985Z,2.50
2018-07-02T00:50:02.177Z,2.40
2018-07-02T00:52:31.418Z,2.42
2018-07-02T00:55:00.635Z,2.50
2018-07-02T00:57:29.938Z,2.03
2018-07-02T01:00:10.250Z,1.80
2018-07-02T01:02:39.480Z,2.00
2018-07-02T01:05:12.190Z,2.30
2018-07-02T01:07:42.095Z,2.43
2018-07-02T01:10:11.294Z,2.43
2018-07-02T01:12:40.590Z,2.53
2018-07-02T01:15:10.045Z,2.30
2018-07-02T01:17:39.278Z,2.13
2018-07-02T01:20:08.513Z,2.00
2018-07-02T01:22:37.751Z,2.37
2018-07-02T01:25:07.199Z,2.70
2018-07-02T01:27:36.366Z,2.30
2018-07-02T01:30:06.167Z,2.60
2018-07-02T01:32:35.387Z,2.33
2018-07-02T01:35:04.718Z,2.47
2018-07-02T01:37:35.520Z,2.20
2018-07-02T01:40:04.809Z,2.23
2018-07-02T01:42:34.051Z,1.98
2018-07-02T01:45:03.277Z,2.30
2018-07-02T01:47:32.431Z,1.67
2018-07-02T01:50:01.694Z,2.50
2018-07-02T01:52:30.913Z,2.43
2018-07-02T01:55:00.119Z,2.00
2018-07-02T01:57:29.329Z,2.07
2018-07-02T01:59:58.545Z,1.90
2018-07-02T02:02:27.767Z,1.83
2018-07-02T02:04:57.051Z,2.33
2018-07-02T02:07:26.290Z,2.15
2018-07-02T02:09:55.601Z,2.50
2018-07-02T02:12:24.795Z,2.63
2018-07-02T02:14:54.000Z,1.90
2018-07-02T02:17:23.274Z,2.50
2018-07-02T02:19:52.497Z,2.00
2018-07-02T02:22:21.694Z,2.07
2018-07-02T02:24:50.907Z,2.50
2018-07-02T02:27:20.212Z,2.60
2018-07-02T02:29:49.458Z,2.27
2018-07-02T02:32:18.776Z,2.47
2018-07-02T02:34:47.995Z,2.33
2018-07-02T02:37:17.221Z,2.58
2018-07-02T02:39:46.600Z,2.80
2018-07-02T02:42:15.915Z,2.10
2018-07-02T02:44:45.525Z,2.23
2018-07-02T02:47:14.701Z,2.53
2018-07-02T02:49:43.929Z,2.80
2018-07-02T02:52:13.139Z,2.97
2018-07-02T02:54:42.364Z,2.40
2018-07-02T02:57:11.799Z,2.80
2018-07-02T02:59:41.093Z,2.70
2018-07-02T03:02:10.296Z,2.93
2018-07-02T03:04:39.561Z,2.57
2018-07-02T03:07:08.994Z,2.10
2018-07-02T03:09:38.199Z,2.58
2018-07-02T03:12:07.461Z,2.30
2018-07-02T03:14:36.682Z,2.60
2018-07-02T03:17:05.922Z,3.10
2018-07-02T03:19:35.163Z,2.70
2018-07-02T03:22:04.441Z,2.57
2018-07-02T03:24:36.320Z,2.93
2018-07-02T03:27:05.598Z,2.70
2018-07-02T03:29:34.818Z,2.37
2018-07-02T03:32:04.045Z,2.60
2018-07-02T03:34:33.215Z,2.90
2018-07-02T03:37:02.465Z,2.97
2018-07-02T03:39:31.690Z,2.60
2018-07-02T03:42:00.913Z,3.00
2018-07-02T03:44:30.133Z,2.73
2018-07-02T03:46:59.471Z,2.40
2018-07-02T03:49:28.665Z,2.70
2018-07-02T03:51:57.952Z,3.13
2018-07-02T03:54:27.116Z,2.80
2018-07-02T03:56:56.417Z,3.70
2018-07-02T03:59:25.593Z,2.93
2018-07-02T04:01:54.901Z,3.13
2018-07-02T04:04:24.203Z,2.83
2018-07-02T04:06:53.414Z,2.77
2018-07-02T04:09:22.694Z,3.40
2018-07-02T04:11:51.931Z,3.50
2018-07-02T04:14:21.359Z,2.97
2018-07-02T04:16:50.572Z,3.57
2018-07-02T04:19:19.736Z,2.70
2018-07-02T04:21:48.944Z,3.30
2018-07-02T04:24:18.163Z,3.23
2018-07-02T04:26:47.342Z,2.80
2018-07-02T04:29:16.606Z,2.75
2018-07-02T04:31:45.879Z,2.40
2018-07-02T04:34:15.120Z,2.47
2018-07-02T04:36:44.328Z,2.33
2018-07-02T04:39:13.572Z,2.60
2018-07-02T04:41:42.759Z,2.83
2018-07-02T04:44:11.958Z,2.40
2018-07-02T04:46:41.154Z,2.23
2018-07-02T04:49:11.177Z,2.45
2018-07-02T04:51:40.417Z,2.37
2018-07-02T04:54:09.683Z,2.23
2018-07-02T04:56:39.086Z,2.77
2018-07-02T04:59:08.331Z,3.23
2018-07-02T05:01:37.670Z,2.40
2018-07-02T05:04:06.899Z,2.90
2018-07-02T05:06:36.164Z,2.30
2018-07-02T05:09:07.917Z,2.13
2018-07-02T05:11:37.225Z,2.20
2018-07-02T05:14:06.526Z,2.60
2018-07-02T05:16:35.811Z,2.40
2018-07-02T05:19:05.219Z,2.70
2018-07-02T05:21:34.466Z,2.47
2018-07-02T05:24:03.801Z,2.40
2018-07-02T05:26:33.016Z,2.10
2018-07-02T05:29:02.442Z,2.00
2018-07-02T05:31:31.685Z,1.93
2018-07-02T05:34:00.908Z,2.20
2018-07-02T05:36:31.018Z,2.00
2018-07-02T05:39:00.338Z,1.60
2018-07-02T05:41:29.553Z,1.40
2018-07-02T05:43:58.756Z,1.93
2018-07-02T05:46:27.947Z,1.80
2018-07-02T05:48:57.199Z,2.57
2018-07-02T05:51:26.461Z,1.70
2018-07-02T05:53:55.678Z,1.90
2018-07-02T05:56:24.865Z,2.00
2018-07-02T05:58:54.305Z,1.80
2018-07-02T06:01:23.812Z,1.53
2018-07-02T06:03:53.088Z,2.10
2018-07-02T06:06:22.326Z,1.97
2018-07-02T06:08:51.535Z,2.10
2018-07-02T06:11:20.724Z,1.62
2018-07-02T06:13:49.917Z,1.70
2018-07-02T06:16:19.203Z,1.60
2018-07-02T06:18:48.374Z,1.77
2018-07-02T06:21:17.559Z,1.27
2018-07-02T06:23:46.812Z,1.80
2018-07-02T06:26:16.019Z,1.97
2018-07-02T06:28:45.205Z,2.40
2018-07-02T06:31:14.416Z,1.90
2018-07-02T06:33:43.604Z,1.60
2018-07-02T06:36:12.785Z,1.47
2018-07-02T06:38:42.031Z,1.40
2018-07-02T06:41:11.689Z,1.67
2018-07-02T06:43:40.850Z,1.43
2018-07-02T06:46:10.138Z,1.80
2018-07-02T06:48:39.318Z,1.50
2018-07-02T06:51:08.603Z,1.30
2018-07-02T06:53:37.889Z,1.83
2018-07-02T06:56:07.184Z,1.70
2018-07-02T06:58:36.380Z,1.40
2018-07-02T07:01:05.574Z,1.37
2018-07-02T07:03:34.764Z,1.87
2018-07-02T07:06:03.999Z,1.63
2018-07-02T07:08:33.278Z,1.20
2018-07-02T07:11:02.500Z,1.23
2018-07-02T07:13:31.688Z,1.60
2018-07-02T07:16:00.935Z,1.20
2018-07-02T07:18:30.123Z,1.47
2018-07-02T07:20:59.326Z,1.20
2018-07-02T07:23:28.674Z,1.45
2018-07-02T07:25:57.809Z,1.53
2018-07-02T07:28:26.952Z,1.60
2018-07-02T07:30:56.192Z,1.77
2018-07-02T07:33:25.365Z,0.97
2018-07-02T07:35:54.480Z,1.50
2018-07-02T07:38:23.875Z,1.13
2018-07-02T07:40:53.549Z,1.70
2018-07-02T07:43:22.713Z,1.80
2018-07-02T07:45:51.866Z,1.37
2018-07-02T07:48:21.122Z,1.40
2018-07-02T07:50:50.292Z,1.30
2018-07-02T07:53:19.542Z,1.33
2018-07-02T07:55:48.661Z,1.77
2018-07-02T07:58:17.796Z,1.37
2018-07-02T08:00:46.990Z,1.27
2018-07-02T08:03:16.130Z,1.27
2018-07-02T08:05:45.268Z,0.97
2018-07-02T08:08:14.401Z,1.67
2018-07-02T08:10:43.567Z,1.13
2018-07-02T08:13:12.744Z,1.23
2018-07-02T08:15:41.936Z,1.50
2018-07-02T08:18:11.060Z,0.80
2018-07-02T08:20:40.229Z,1.23
2018-07-02T08:23:09.579Z,1.10
2018-07-02T08:25:38.762Z,1.00
2018-07-02T08:28:07.906Z,1.13
2018-07-02T08:30:37.078Z,1.03
2018-07-02T08:33:06.408Z,0.90
2018-07-02T08:35:35.553Z,1.15
2018-07-02T08:38:04.806Z,1.00
2018-07-02T08:40:34.031Z,1.13
2018-07-02T08:43:03.178Z,1.47
2018-07-02T08:45:32.361Z,1.27
2018-07-02T08:48:01.646Z,1.30
2018-07-02T08:50:30.795Z,1.20
2018-07-02T08:53:00.130Z,0.93
2018-07-02T08:55:29.264Z,1.70
2018-07-02T08:57:59.048Z,0.97
2018-07-02T09:00:28.197Z,1.00
2018-07-02T09:02:57.363Z,1.40
2018-07-02T09:05:26.485Z,1.42
2018-07-02T09:07:55.654Z,1.23
2018-07-02T09:10:24.828Z,1.00
2018-07-02T09:12:53.950Z,1.10
2018-07-02T09:15:23.077Z,0.88
2018-07-02T09:17:52.273Z,1.10
2018-07-02T09:20:21.483Z,1.27
2018-07-02T09:22:50.683Z,1.10
2018-07-02T09:25:19.875Z,1.35
2018-07-02T09:27:49.029Z,1.13
2018-07-02T09:30:18.193Z,1.20
2018-07-02T09:32:47.485Z,1.43
2018-07-02T09:35:16.698Z,1.67
2018-07-02T09:37:45.862Z,1.42
2018-07-02T09:40:15.021Z,1.20
2018-07-02T09:42:44.165Z,1.27
2018-07-02T09:45:13.914Z,1.10
2018-07-02T09:47:43.091Z,1.30
2018-07-02T09:50:12.250Z,1.10
2018-07-02T09:52:41.406Z,1.37
2018-07-02T09:55:10.693Z,1.53
2018-07-02T09:57:39.834Z,1.57
2018-07-02T10:00:09.054Z,1.20
2018-07-02T10:02:38.318Z,1.10
2018-07-02T10:05:07.658Z,0.90
2018-07-02T10:07:36.793Z,1.27
2018-07-02T10:10:05.974Z,1.10
2018-07-02T10:12:35.117Z,1.50
2018-07-02T10:15:05.102Z,1.17
2018-07-02T10:17:34.272Z,1.30
2018-07-02T10:20:03.500Z,1.10
2018-07-02T10:22:32.692Z,1.30
2018-07-02T10:25:01.877Z,1.10
2018-07-02T10:27:31.058Z,1.10
2018-07-02T10:30:00.238Z,1.30
2018-07-02T10:32:29.428Z,1.03
2018-07-02T10:34:58.533Z,1.30
2018-07-02T10:37:27.680Z,1.30
2018-07-02T10:39:57.546Z,1.43
2018-07-02T10:42:26.695Z,0.93
2018-07-02T10:44:55.853Z,1.43
2018-07-02T10:47:25.040Z,1.00
2018-07-02T10:49:54.338Z,1.20
2018-07-02T10:52:23.504Z,1.50
2018-07-02T10:54:52.659Z,1.40
2018-07-02T10:57:21.813Z,1.13
2018-07-02T10:59:50.966Z,1.40
2018-07-02T11:02:20.096Z,1.30
2018-07-02T11:04:49.223Z,1.40
2018-07-02T11:07:18.429Z,1.32
2018-07-02T11:09:47.594Z,1.60
2018-07-02T11:12:16.763Z,1.20
2018-07-02T11:14:45.924Z,1.53
2018-07-02T11:17:15.123Z,1.30
2018-07-02T11:19:44.212Z,1.23
2018-07-02T11:22:13.369Z,1.10
2018-07-02T11:24:42.532Z,1.70
2018-07-02T11:27:11.672Z,1.40
2018-07-02T11:29:41.267Z,2.07
2018-07-02T11:32:10.421Z,1.10
2018-07-02T11:34:39.529Z,1.63
2018-07-02T11:37:08.922Z,1.33
2018-07-02T11:39:38.090Z,1.50
2018-07-02T11:42:07.256Z,1.07
2018-07-02T11:44:36.449Z,1.10
2018-07-02T11:47:05.698Z,0.90
2018-07-02T11:49:34.886Z,1.20
2018-07-02T11:52:03.997Z,1.00
2018-07-02T11:54:33.129Z,1.43
2018-07-02T11:57:02.316Z,1.50
2018-07-02T11:59:31.957Z,2.00
2018-07-02T12:02:01.237Z,1.70
2018-07-02T12:04:30.235Z,1.30
2018-07-02T12:06:59.584Z,1.87
2018-07-02T12:09:28.690Z,1.50
2018-07-02T12:11:57.883Z,1.10
2018-07-02T12:14:27.058Z,1.55
2018-07-02T12:16:56.474Z,1.30
2018-07-02T12:19:25.608Z,1.47
2018-07-02T12:21:54.757Z,1.47
2018-07-02T12:24:23.902Z,1.23
2018-07-02T12:26:53.049Z,1.47
2018-07-02T12:29:22.249Z,1.30
2018-07-02T12:31:51.376Z,1.63
2018-07-02T12:34:20.574Z,1.60
2018-07-02T12:36:49.701Z,1.40
2018-07-02T12:39:18.825Z,1.27
2018-07-02T12:41:47.978Z,1.60
2018-07-02T12:44:17.141Z,1.30
2018-07-02T12:46:46.308Z,1.67
2018-07-02T12:49:15.809Z,1.17
2018-07-02T12:51:45.056Z,1.53
2018-07-02T12:54:14.316Z,1.77
2018-07-02T12:56:43.425Z,1.90
2018-07-02T12:59:12.630Z,1.67
2018-07-02T13:01:41.816Z,1.67
2018-07-02T13:04:10.979Z,1.50
2018-07-02T13:06:40.117Z,1.83
2018-07-02T13:09:12.240Z,1.40
2018-07-02T13:11:41.467Z,1.30
2018-07-02T13:14:11.459Z,1.80
2018-07-02T13:16:40.641Z,1.47
2018-07-02T13:19:09.849Z,1.30
2018-07-02T13:21:39.192Z,1.60
2018-07-02T13:24:08.403Z,1.32
2018-07-02T13:26:38.133Z,1.57
2018-07-02T13:29:07.507Z,1.80
2018-07-02T13:31:36.671Z,1.82
2018-07-02T13:34:05.813Z,1.67
2018-07-02T13:36:35.031Z,1.50
2018-07-02T13:39:05.304Z,1.30
2018-07-02T13:41:34.468Z,1.40
2018-07-02T13:44:04.104Z,1.50
2018-07-02T13:46:33.251Z,1.60
2018-07-02T13:49:02.412Z,1.90
2018-07-02T13:51:31.509Z,1.67
2018-07-02T13:54:00.687Z,1.53
2018-07-02T13:56:29.870Z,1.67
2018-07-02T13:58:59.022Z,1.40
2018-07-02T14:01:28.210Z,1.60
2018-07-02T14:03:57.358Z,1.90
2018-07-02T14:06:26.462Z,1.30
2018-07-02T14:08:55.599Z,1.90
2018-07-02T14:11:24.761Z,1.32
2018-07-02T14:13:53.972Z,1.43
2018-07-02T14:16:23.331Z,1.43
2018-07-02T14:18:52.568Z,1.80
2018-07-02T14:21:21.729Z,1.30
2018-07-02T14:23:50.919Z,1.27
2018-07-02T14:26:20.063Z,1.43
2018-07-02T14:28:49.873Z,1.13
2018-07-02T14:31:20.007Z,1.40
2018-07-02T14:33:49.196Z,1.13
2018-07-02T14:36:18.373Z,1.70
2018-07-02T14:38:47.554Z,1.13
2018-07-02T14:41:16.873Z,1.02
2018-07-02T14:43:46.045Z,1.10
2018-07-02T14:46:15.269Z,1.30
2018-07-02T14:48:44.489Z,1.43
2018-07-02T14:51:13.691Z,1.00
2018-07-02T14:53:42.908Z,1.45
2018-07-02T14:56:12.596Z,1.40
2018-07-02T14:58:41.737Z,1.20
2018-07-02T15:01:10.859Z,1.50
2018-07-02T15:03:40.060Z,1.20
2018-07-02T15:06:09.227Z,1.37
2018-07-02T15:08:38.418Z,1.57
2018-07-02T15:11:07.761Z,1.67
2018-07-02T15:13:36.941Z,1.53
2018-07-02T15:16:06.179Z,1.10
2018-07-02T15:18:35.364Z,1.23
2018-07-02T15:21:04.544Z,0.80
2018-07-02T15:23:33.766Z,1.20
2018-07-02T15:26:02.913Z,1.40
2018-07-02T15:28:32.034Z,1.07
2018-07-02T15:31:01.225Z,1.30
2018-07-02T15:33:30.360Z,1.73
2018-07-02T15:35:59.491Z,1.00
2018-07-02T15:38:28.693Z,1.30
2018-07-02T15:40:58.888Z,1.23
2018-07-02T15:43:28.006Z,1.07
2018-07-02T15:45:57.178Z,1.20
2018-07-02T15:48:26.785Z,1.20
2018-07-02T15:50:55.961Z,1.10
2018-07-02T15:53:25.120Z,1.22
2018-07-02T15:55:54.302Z,1.00
2018-07-02T15:58:23.438Z,1.15
2018-07-02T16:00:52.634Z,1.10
2018-07-02T16:03:22.285Z,1.10
2018-07-02T16:05:51.465Z,1.30
2018-07-02T16:08:20.730Z,0.97
2018-07-02T16:10:50.010Z,1.10
2018-07-02T16:13:19.128Z,1.50
2018-07-02T16:15:48.314Z,1.20
2018-07-02T16:18:17.581Z,1.23
2018-07-02T16:20:46.725Z,1.23
2018-07-02T16:23:15.878Z,1.27
2018-07-02T16:25:45.058Z,1.13
2018-07-02T16:28:14.204Z,1.10
2018-07-02T16:30:43.369Z,1.20
2018-07-02T16:33:12.521Z,1.37
2018-07-02T16:35:41.709Z,1.17
2018-07-02T16:38:10.797Z,1.20
2018-07-02T16:40:39.993Z,1.10
2018-07-02T16:43:09.257Z,1.43
2018-07-02T16:45:38.455Z,2.00
2018-07-02T16:48:07.987Z,1.60
2018-07-02T16:50:37.308Z,1.70
2018-07-02T16:53:06.596Z,1.33
2018-07-02T16:55:35.758Z,1.13
2018-07-02T16:58:05.214Z,1.57
2018-07-02T17:00:34.430Z,1.07
2018-07-02T17:03:03.602Z,1.77
2018-07-02T17:05:32.827Z,1.20
2018-07-02T17:08:02.071Z,1.10
2018-07-02T17:10:31.334Z,1.20
2018-07-02T17:13:00.534Z,1.00
2018-07-02T17:15:29.755Z,1.10
2018-07-02T17:17:59.009Z,1.60
2018-07-02T17:20:28.149Z,1.50
2018-07-02T17:22:57.347Z,1.10
2018-07-02T17:25:26.510Z,1.50
2018-07-02T17:27:55.714Z,1.57
2018-07-02T17:30:24.900Z,1.47
2018-07-02T17:32:54.095Z,1.10
2018-07-02T17:35:23.268Z,1.50
2018-07-02T17:37:52.436Z,1.10
2018-07-02T17:40:21.632Z,1.33
2018-07-02T17:42:50.741Z,1.13
2018-07-02T17:45:19.973Z,1.00
2018-07-02T17:47:49.171Z,1.43
2018-07-02T17:50:18.342Z,1.50
2018-07-02T17:52:47.500Z,1.00
2018-07-02T17:55:16.677Z,1.42
2018-07-02T17:57:45.801Z,1.13
2018-07-02T18:00:18.422Z,1.40
2018-07-02T18:02:47.688Z,1.60
2018-07-02T18:05:17.052Z,1.60
2018-07-02T18:07:46.268Z,1.43
2018-07-02T18:10:15.534Z,1.17
2018-07-02T18:12:44.974Z,1.40
2018-07-02T18:15:14.164Z,1.97
2018-07-02T18:17:43.350Z,1.87
2018-07-02T18:20:12.589Z,1.50
2018-07-02T18:22:41.925Z,1.60
2018-07-02T18:25:11.590Z,1.10
2018-07-02T18:27:40.775Z,1.53
2018-07-02T18:30:10.119Z,1.83
2018-07-02T18:32:39.315Z,1.97
2018-07-02T18:35:08.730Z,1.30
2018-07-02T18:37:38.204Z,1.73
2018-07-02T18:40:08.398Z,1.63
2018-07-02T18:42:37.666Z,1.50
2018-07-02T18:45:07.624Z,1.53
2018-07-02T18:47:38.598Z,1.90
2018-07-02T18:50:07.898Z,1.77
2018-07-02T18:52:37.194Z,1.93
2018-07-02T18:55:06.985Z,1.90
2018-07-02T18:57:36.195Z,2.07
2018-07-02T19:00:06.394Z,1.90
2018-07-02T19:02:35.564Z,1.70
2018-07-02T19:05:05.267Z,1.80
2018-07-02T19:07:34.482Z,1.70
2018-07-02T19:10:03.757Z,1.80
2018-07-02T19:12:33.394Z,1.63
2018-07-02T19:15:02.666Z,1.80
2018-07-02T19:17:31.901Z,1.73
2018-07-02T19:20:01.117Z,1.80
2018-07-02T19:22:30.317Z,1.97
2018-07-02T19:24:59.750Z,2.23
2018-07-02T19:27:28.969Z,2.30
2018-07-02T19:29:58.248Z,1.83
2018-07-02T19:32:27.468Z,1.70
2018-07-02T19:34:56.659Z,1.60
2018-07-02T19:37:25.921Z,1.90
2018-07-02T19:39:55.182Z,2.10
2018-07-02T19:42:24.440Z,2.60
2018-07-02T19:44:53.687Z,1.97
2018-07-02T19:47:22.943Z,1.73
2018-07-02T19:49:52.230Z,1.97
2018-07-02T19:52:21.552Z,1.97
2018-07-02T19:54:50.773Z,1.73
2018-07-02T19:57:19.991Z,2.10
2018-07-02T19:59:49.341Z,2.40
2018-07-02T20:02:18.566Z,1.87
2018-07-02T20:04:47.832Z,2.00
2018-07-02T20:07:17.139Z,2.63
2018-07-02T20:09:46.436Z,2.57
2018-07-02T20:12:15.645Z,2.60
2018-07-02T20:14:44.866Z,2.25
2018-07-02T20:17:14.086Z,2.87
2018-07-02T20:19:43.313Z,3.03
2018-07-02T20:22:12.641Z,2.83
2018-07-02T20:24:41.881Z,3.13
2018-07-02T20:27:11.127Z,3.57
2018-07-02T20:29:40.324Z,3.20
2018-07-02T20:32:09.637Z,3.77
2018-07-02T20:34:39.125Z,3.27
2018-07-02T20:37:08.462Z,3.30
2018-07-02T20:39:37.700Z,3.30
2018-07-02T20:42:06.941Z,3.10
2018-07-02T20:44:36.160Z,2.97
2018-07-02T20:47:05.381Z,2.60
2018-07-02T20:49:34.594Z,2.70
2018-07-02T20:52:03.860Z,2.73
2018-07-02T20:54:33.053Z,3.25
2018-07-02T20:57:02.283Z,2.40
2018-07-02T20:59:31.530Z,2.57
2018-07-02T21:02:00.787Z,2.73
2018-07-02T21:04:30.034Z,2.40
2018-07-02T21:06:59.238Z,2.90
2018-07-02T21:09:28.422Z,2.42
2018-07-02T21:11:57.627Z,2.27
2018-07-02T21:14:26.929Z,2.62
2018-07-02T21:16:56.172Z,2.33
2018-07-02T21:19:25.499Z,2.83
2018-07-02T21:21:55.662Z,2.87
2018-07-02T21:24:24.889Z,2.80
2018-07-02T21:26:54.126Z,3.13
2018-07-02T21:29:23.294Z,3.37
2018-07-02T21:31:52.475Z,4.13
2018-07-02T21:34:21.793Z,3.77
2018-07-02T21:36:51.007Z,3.20
2018-07-02T21:39:20.205Z,2.73
2018-07-02T21:41:49.368Z,2.60
2018-07-02T21:44:18.566Z,3.00
2018-07-02T21:46:47.775Z,3.40
2018-07-02T21:49:17.009Z,3.60
2018-07-02T21:51:46.212Z,2.70
2018-07-02T21:54:15.411Z,3.00
2018-07-02T21:56:44.604Z,3.23
2018-07-02T21:59:13.845Z,3.13
2018-07-02T22:01:43.045Z,3.57
2018-07-02T22:04:12.261Z,2.87
2018-07-02T22:06:41.502Z,2.77
2018-07-02T22:09:12.238Z,3.33
2018-07-02T22:11:41.435Z,3.03
2018-07-02T22:14:10.663Z,2.80
2018-07-02T22:16:39.841Z,3.30
2018-07-02T22:19:10.085Z,3.23
2018-07-02T22:21:39.321Z,3.47
2018-07-02T22:24:08.922Z,3.70
2018-07-02T22:26:38.876Z,3.30
2018-07-02T22:29:08.425Z,3.50
2018-07-02T22:31:37.680Z,4.53
2018-07-02T22:34:06.816Z,4.03
2018-07-02T22:36:36.065Z,3.70
2018-07-02T22:39:12.419Z,4.93
2018-07-02T22:41:41.600Z,4.58
2018-07-02T22:44:10.761Z,3.90
2018-07-02T22:46:40.162Z,3.60
2018-07-02T22:49:09.544Z,4.17
2018-07-02T22:51:38.702Z,3.67
2018-07-02T22:54:07.909Z,3.60
2018-07-02T22:56:37.113Z,3.30
2018-07-02T22:59:06.277Z,4.00
2018-07-02T23:01:36.692Z,3.23
2018-07-02T23:04:06.044Z,4.17
2018-07-02T23:06:35.274Z,3.67
2018-07-02T23:09:06.310Z,3.90
2018-07-02T23:11:35.533Z,4.60
2018-07-02T23:14:04.755Z,4.07
2018-07-02T23:16:33.962Z,3.20
2018-07-02T23:19:03.514Z,3.90
2018-07-02T23:21:32.807Z,3.40
2018-07-02T23:24:02.023Z,4.20
2018-07-02T23:26:31.490Z,3.73
2018-07-02T23:29:00.685Z,4.23
2018-07-02T23:31:29.909Z,4.23
2018-07-02T23:33:59.129Z,3.87
2018-07-02T23:36:28.366Z,4.47
2018-07-02T23:38:57.573Z,4.37
2018-07-02T23:41:27.049Z,4.70
2018-07-02T23:43:56.267Z,4.97
2018-07-02T23:46:25.541Z,4.10
2018-07-02T23:48:54.733Z,4.40
2018-07-02T23:51:23.979Z,4.40
2018-07-02T23:53:53.136Z,4.57
2018-07-02T23:56:22.351Z,3.90
2018-07-02T23:58:51.581Z,5.17
